createdAt,value
2024-01-15T00:00:31.994Z,99223.59
2024-01-15T00:05:33.370Z,99215.53
2024-01-15T00:10:34.766Z,99215.81
2024-01-15T00:15:36.245Z,99210.22
2024-01-15T00:20:37.657Z,99199.38
2024-01-15T00:25:39.158Z,99198.25
2024-01-15T00:30:40.654Z,99196.03
2024-01-15T00:35:42.653Z,99203.72
2024-01-15T00:40:44.058Z,99185.47
2024-01-15T00:45:46.033Z,99180.88
2024-01-15T00:50:47.443Z,99171.84
2024-01-15T00:55:49.752Z,99172.56
2024-01-15T01:00:51.242Z,99172.25
2024-01-15T01:05:52.738Z,99172.81
2024-01-15T01:10:54.164Z,99169.88
2024-01-15T01:15:55.584Z,99164.91
2024-01-15T01:20:56.976Z,99166.53
2024-01-15T01:25:58.467Z,99153.19
2024-01-15T01:31:01.205Z,99157.91
2024-01-15T01:36:08.462Z,99146.25
2024-01-15T01:41:11.330Z,99161.44
2024-01-15T01:46:12.837Z,99150.13
2024-01-15T01:51:14.692Z,99150.53
2024-01-15T01:56:16.702Z,99150.69
2024-01-15T02:01:19.367Z,99140.28
2024-01-15T02:06:20.944Z,99131.34
2024-01-15T02:11:22.631Z,99130.09
2024-01-15T02:16:24.092Z,99126.06
2024-01-15T02:21:27.547Z,99123.66
2024-01-15T02:26:29.332Z,99117.09
2024-01-15T02:31:30.832Z,99118.53
2024-01-15T02:36:32.545Z,99130.59
2024-01-15T02:41:33.935Z,99128.91
2024-01-15T02:46:35.378Z,99115.66
2024-01-15T02:51:36.796Z,99131.69
2024-01-15T02:56:38.228Z,99130.47
2024-01-15T03:01:39.673Z,99134.53
2024-01-15T03:06:41.161Z,99124.78
2024-01-15T03:11:42.604Z,99127.00
2024-01-15T03:16:44.027Z,99122.94
2024-01-15T03:21:45.524Z,99124.22
2024-01-15T03:26:46.903Z,99122.25
2024-01-15T03:31:48.466Z,99122.56
2024-01-15T03:36:49.927Z,99116.41
2024-01-15T03:41:51.435Z,99111.00
2024-01-15T03:46:52.892Z,99127.56
2024-01-15T03:51:54.363Z,99117.81
2024-01-15T03:56:55.723Z,99102.66
2024-01-15T04:01:57.226Z,99100.56
2024-01-15T04:06:58.627Z,99107.22
2024-01-15T04:12:00.014Z,99105.44
2024-01-15T04:17:01.448Z,99103.75
2024-01-15T04:22:02.843Z,99096.38
2024-01-15T04:27:04.757Z,99092.91
2024-01-15T04:32:06.545Z,99089.94
2024-01-15T04:37:08.205Z,99087.31
2024-01-15T04:42:09.678Z,99098.59
2024-01-15T04:47:11.108Z,99088.16
2024-01-15T04:52:13.543Z,99083.56
2024-01-15T04:57:14.944Z,99079.69
2024-01-15T05:02:16.609Z,99073.25
2024-01-15T05:07:17.984Z,99069.25
2024-01-15T05:12:19.475Z,99062.41
2024-01-15T05:17:20.909Z,99072.41
2024-01-15T05:22:22.355Z,99073.19
2024-01-15T05:27:23.857Z,99057.72
2024-01-15T05:32:25.298Z,99048.38
2024-01-15T05:37:26.863Z,99049.53
2024-01-15T05:42:31.022Z,99066.91
2024-01-15T05:47:32.794Z,99067.84
2024-01-15T05:52:34.243Z,99063.25
2024-01-15T05:57:35.728Z,99063.19
2024-01-15T06:02:38.846Z,99061.53
2024-01-15T06:07:40.356Z,99068.09
2024-01-15T06:12:42.044Z,99071.72
2024-01-15T06:17:43.491Z,99064.06
2024-01-15T06:22:44.952Z,99067.94
2024-01-15T06:27:46.388Z,99060.47
2024-01-15T06:32:48.035Z,99060.19
2024-01-15T06:37:49.457Z,99075.09
2024-01-15T06:42:50.948Z,99067.16
2024-01-15T06:47:52.386Z,99062.25
2024-01-15T06:52:54.092Z,99066.31
2024-01-15T06:57:55.621Z,99049.16
2024-01-15T07:02:57.883Z,99034.38
2024-01-15T07:07:59.797Z,99044.59
2024-01-15T07:13:01.277Z,99048.84
2024-01-15T07:18:03.065Z,99063.28
2024-01-15T07:23:05.148Z,99052.84
2024-01-15T07:28:06.802Z,99052.16
2024-01-15T07:33:08.412Z,99046.59
2024-01-15T07:38:11.173Z,99061.66
2024-01-15T07:43:12.585Z,99068.03
2024-01-15T07:48:14.117Z,99064.28
2024-01-15T07:53:15.599Z,99047.75
2024-01-15T07:58:17.368Z,99052.06
2024-01-15T08:03:18.989Z,99045.78
2024-01-15T08:08:22.336Z,99057.44
2024-01-15T08:13:23.780Z,99046.22
2024-01-15T08:18:26.473Z,99051.72
2024-01-15T08:23:29.184Z,99042.91
2024-01-15T08:28:30.903Z,99049.19
2024-01-15T08:33:32.484Z,99030.66
2024-01-15T08:38:33.930Z,99031.28
2024-01-15T08:43:35.833Z,99035.28
2024-01-15T08:48:37.719Z,99037.94
2024-01-15T08:53:40.304Z,99034.38
2024-01-15T08:58:41.721Z,99036.56
2024-01-15T09:03:43.942Z,99029.97
2024-01-15T09:08:45.746Z,99018.72
2024-01-15T09:13:47.102Z,99021.03
2024-01-15T09:18:48.567Z,99013.75
2024-01-15T09:23:50.017Z,99014.66
2024-01-15T09:28:51.563Z,99012.16
2024-01-15T09:33:57.121Z,98997.16
2024-01-15T09:38:58.703Z,98997.22
2024-01-15T09:44:00.218Z,98992.13
2024-01-15T09:49:03.078Z,98987.81
2024-01-15T09:54:05.132Z,99002.63
2024-01-15T09:59:07.383Z,98981.72
2024-01-15T10:04:08.934Z,98972.25
2024-01-15T10:09:10.485Z,98974.53
2024-01-15T10:14:15.585Z,98960.59
2024-01-15T10:19:17.099Z,98958.09
2024-01-15T10:24:18.631Z,98955.78
2024-01-15T10:29:20.442Z,98953.31
2024-01-15T10:34:21.944Z,98944.84
2024-01-15T10:39:24.438Z,98933.22
2024-01-15T10:44:26.615Z,98930.25
2024-01-15T10:49:32.553Z,98919.78
2024-01-15T10:54:37.858Z,98917.13
2024-01-15T10:59:39.805Z,98904.16
2024-01-15T11:04:43.741Z,98892.34
2024-01-15T11:09:47.484Z,98891.00
2024-01-15T11:14:50.476Z,98895.38
2024-01-15T11:19:53.416Z,98899.84
2024-01-15T11:24:55.294Z,98898.88
2024-01-15T11:30:10.435Z,98887.09
2024-01-15T11:35:12.330Z,98884.75
2024-01-15T11:40:15.446Z,98891.03
2024-01-15T11:45:21.364Z,98901.31
2024-01-15T11:50:23.076Z,98895.25
2024-01-15T11:55:46.222Z,98891.94
2024-01-15T12:00:53.535Z,98908.88
2024-01-15T12:05:55.313Z,98913.38
2024-01-15T12:10:58.257Z,98902.75
2024-01-15T12:16:03.638Z,98904.09
2024-01-15T12:21:05.316Z,98901.97
2024-01-15T12:26:06.903Z,98901.31
2024-01-15T12:53:07.417Z,98901.38
2024-01-15T12:58:09.834Z,98907.38
2024-01-15T13:03:11.932Z,98919.00
2024-01-15T13:08:15.006Z,98895.84
2024-01-15T13:13:16.812Z,98902.16
2024-01-15T13:18:18.693Z,98899.72
2024-01-15T13:23:21.990Z,98890.34
2024-01-15T13:28:24.427Z,98908.81
2024-01-15T13:33:26.779Z,98914.31
2024-01-15T13:38:28.881Z,98901.78
2024-01-15T13:43:30.411Z,98905.09
2024-01-15T13:48:35.291Z,98915.59
2024-01-15T13:53:39.295Z,98919.56
2024-01-15T13:58:40.869Z,98922.03
2024-01-15T14:03:42.749Z,98932.53
2024-01-15T14:08:44.302Z,98935.25
2024-01-15T14:13:46.190Z,98944.53
2024-01-15T14:18:48.668Z,98948.06
2024-01-15T14:23:50.292Z,98959.91
2024-01-15T14:28:52.188Z,98957.25
2024-01-15T14:33:54.009Z,98958.41
2024-01-15T14:38:55.622Z,98974.38
2024-01-15T14:43:58.430Z,98979.72
2024-01-15T14:49:00.097Z,98981.69
2024-01-15T14:54:01.727Z,98981.69
2024-01-15T14:59:03.815Z,98985.03
2024-01-15T15:04:05.493Z,98993.00
2024-01-15T15:09:10.928Z,99007.44
2024-01-15T15:14:12.582Z,99014.94
2024-01-15T15:19:14.224Z,99023.59
2024-01-15T15:24:15.808Z,99017.59
2024-01-15T15:29:18.280Z,99034.69
2024-01-15T15:34:19.980Z,99042.69
2024-01-15T15:39:21.756Z,99052.34
2024-01-15T15:44:23.555Z,99063.81
2024-01-15T15:49:25.204Z,99072.94
2024-01-15T15:54:27.376Z,99083.72
2024-01-15T15:59:29.031Z,99091.03
2024-01-15T16:04:30.791Z,99102.31
2024-01-15T16:09:32.390Z,99097.19
2024-01-15T16:14:34.321Z,99104.81
2024-01-15T16:23:26.180Z,99098.69
2024-01-15T16:25:00.648Z,99125.03
2024-01-15T16:30:12.306Z,99111.59
2024-01-15T16:35:20.067Z,99125.19
2024-01-15T16:40:21.939Z,99144.94
2024-01-15T16:45:23.530Z,99156.69
2024-01-15T16:50:25.182Z,99158.88
2024-01-15T16:55:26.751Z,99165.66
2024-01-15T17:00:28.447Z,99182.59
2024-01-15T17:05:30.042Z,99185.25
2024-01-15T17:10:32.280Z,99210.97
2024-01-15T17:15:34.119Z,99203.34
2024-01-15T17:20:35.787Z,99203.34
2024-01-15T17:25:37.884Z,99216.69
2024-01-15T17:30:40.202Z,99220.94
2024-01-15T17:35:51.490Z,99223.59
2024-01-15T17:40:53.214Z,99236.31
2024-01-15T17:45:56.423Z,99239.97
2024-01-15T17:51:00.554Z,99243.84
2024-01-15T17:56:02.174Z,99258.06
2024-01-15T18:01:06.301Z,99254.66
2024-01-15T18:06:08.036Z,99264.09
2024-01-15T18:11:16.664Z,99270.91
2024-01-15T18:16:23.582Z,99281.69
2024-01-15T18:21:26.614Z,99293.28
2024-01-15T18:26:28.419Z,99294.25
2024-01-15T18:31:30.944Z,99314.91
2024-01-15T18:36:32.521Z,99335.31
2024-01-15T18:41:34.597Z,99335.16
2024-01-15T18:46:36.424Z,99340.63
2024-01-15T18:51:38.008Z,99351.72
2024-01-15T18:56:42.910Z,99354.91
2024-01-15T19:01:45.377Z,99349.72
2024-01-15T19:06:49.424Z,99356.25
2024-01-15T19:11:51.337Z,99359.50
2024-01-15T19:16:53.749Z,99373.75
2024-01-15T19:21:55.328Z,99363.66
2024-01-15T19:26:56.904Z,99380.91
2024-01-15T19:32:02.117Z,99371.63
2024-01-15T19:37:03.888Z,99379.59
2024-01-15T19:42:05.726Z,99374.38
2024-01-15T19:47:07.407Z,99390.16
2024-01-15T19:52:10.305Z,99386.00
2024-01-15T19:57:12.475Z,99384.19
2024-01-15T20:02:14.246Z,99398.34
2024-01-15T20:07:15.845Z,99391.47
2024-01-15T20:12:17.759Z,99389.25
2024-01-15T20:17:19.515Z,99391.28
2024-01-15T20:22:21.219Z,99402.06
2024-01-15T20:27:23.003Z,99408.25
2024-01-15T20:32:24.952Z,99400.16
2024-01-15T20:37:28.509Z,99388.84
2024-01-15T20:42:30.969Z,99390.28
2024-01-15T20:47:33.694Z,99418.00
2024-01-15T20:52:36.571Z,99410.72
2024-01-15T20:57:38.215Z,99406.69
2024-01-15T21:02:40.245Z,99431.00
2024-01-15T21:07:43.019Z,99443.41
2024-01-15T21:12:45.297Z,99455.66
2024-01-15T21:17:50.015Z,99450.63
2024-01-15T21:22:52.208Z,99465.28
2024-01-15T21:27:54.206Z,99470.50
2024-01-15T21:32:56.191Z,99473.03
2024-01-15T21:37:58.097Z,99480.03
2024-01-15T21:42:59.658Z,99485.16
2024-01-15T21:48:01.712Z,99499.72
2024-01-15T21:53:03.543Z,99495.16
2024-01-15T21:58:05.133Z,99497.31
2024-01-15T22:03:07.022Z,99502.63
2024-01-15T22:08:08.662Z,99512.28
2024-01-15T22:13:10.303Z,99508.09
2024-01-15T22:18:12.515Z,99522.59
2024-01-15T22:23:14.190Z,99534.69
2024-01-15T22:28:16.345Z,99545.59
2024-01-15T22:33:18.082Z,99561.69
2024-01-15T22:38:20.133Z,99562.00
2024-01-15T22:43:21.928Z,99569.38
2024-01-15T22:48:23.700Z,99575.06
2024-01-15T22:53:25.620Z,99575.34
2024-01-15T22:58:27.242Z,99561.59
2024-01-15T23:03:28.862Z,99579.31
2024-01-15T23:08:30.527Z,99591.22
2024-01-15T23:13:32.246Z,99591.66
2024-01-15T23:18:33.812Z,99593.94
2024-01-15T23:23:35.647Z,99601.75
2024-01-15T23:28:37.304Z,99604.53
2024-01-15T23:33:39.599Z,99609.84
2024-01-15T23:38:42.075Z,99618.06
2024-01-15T23:43:43.751Z,99620.47
2024-01-15T23:48:46.842Z,99626.25
2024-01-15T23:53:50.054Z,99636.31
2024-01-15T23:58:51.703Z,99633.94
